Time;durP1;ratioP1;P1;durP2;ratioP2;P2;SDS_P1;SDS_P2;PMS_P1;PMS_P2;Temp;Humidity;BMP_temperature;BMP_pressure;BME280_temperature;BME280_humidity;BME280_pressure;Samples;Min_cycle;Max_cycle;Signal;HPM_P1;HPM_P2
2022/08/15 00:00:56;;;;;;;5.47;3.00;;;17.80;94.60;;;;;;5077296;28;20642;-75
2022/08/15 00:03:27;;;;;;;3.47;2.33;;;17.50;94.60;;;;;;5076996;28;20213;-72
2022/08/15 00:05:55;;;;;;;2.73;2.30;;;17.10;94.60;;;;;;5076500;28;20184;-70
2022/08/15 00:08:21;;;;;;;2.30;2.10;;;18.00;94.90;;;;;;5076555;28;20176;-72
2022/08/15 00:10:48;;;;;;;6.77;2.90;;;17.40;94.80;;;;;;5077237;28;20185;-69
2022/08/15 00:13:21;;;;;;;5.33;2.83;;;16.60;94.40;;;;;;5084307;28;20186;-70
2022/08/15 00:15:50;;;;;;;2.27;1.70;;;24.40;96.70;;;;;;5077198;28;20215;-69
2022/08/15 00:18:17;;;;;;;3.33;2.40;;;24.30;96.80;;;;;;5077712;28;20293;-71
2022/08/15 00:20:43;;;;;;;6.20;3.67;;;24.40;97.10;;;;;;5081397;28;20186;-70
2022/08/15 00:23:11;;;;;;;2.50;1.87;;;24.40;97.10;;;;;;5076780;28;20183;-71
2022/08/15 00:25:37;;;;;;;2.80;2.60;;;24.30;97.20;;;;;;5076779;28;20210;-70
2022/08/15 00:28:05;;;;;;;3.77;2.27;;;24.30;96.80;;;;;;5076909;28;20186;-70
2022/08/15 00:30:35;;;;;;;2.43;2.20;;;24.30;96.80;;;;;;5077266;28;20178;-69
2022/08/15 00:33:01;;;;;;;4.50;2.03;;;24.40;96.70;;;;;;5076569;28;20171;-71
2022/08/15 00:35:36;;;;;;;2.70;2.37;;;24.50;96.60;;;;;;5077095;28;20207;-70
2022/08/15 00:38:24;;;;;;;2.13;1.97;;;24.40;96.60;;;;;;5075506;28;20173;-72
2022/08/15 00:43:41;;;;;;;5.20;2.43;;;24.20;96.90;;;;;;5077977;28;20194;-72
2022/08/15 00:46:10;;;;;;;2.60;1.80;;;24.00;97.40;;;;;;5076825;28;20175;-69
2022/08/15 00:48:42;;;;;;;3.13;2.13;;;23.90;97.50;;;;;;5076036;28;20175;-69
2022/08/15 00:51:16;;;;;;;2.97;2.77;;;23.90;97.80;;;;;;5076907;28;20195;-71
2022/08/15 00:53:48;;;;;;;3.03;2.03;;;23.90;98.00;;;;;;5082450;28;20179;-73
2022/08/15 00:56:15;;;;;;;2.03;1.57;;;23.80;98.60;;;;;;5076313;28;20558;-69
2022/08/15 00:58:43;;;;;;;2.47;2.23;;;23.70;99.40;;;;;;5076502;28;20244;-70
2022/08/15 01:01:12;;;;;;;5.50;3.30;;;23.40;99.90;;;;;;5076948;28;21047;-73
2022/08/15 01:03:42;;;;;;;2.83;1.90;;;23.50;99.90;;;;;;5076567;28;20456;-70
2022/08/15 01:06:08;;;;;;;3.23;2.77;;;23.20;99.90;;;;;;5076932;28;20183;-70
2022/08/15 01:08:38;;;;;;;4.03;1.87;;;23.00;99.90;;;;;;5076136;28;20191;-70
2022/08/15 01:11:18;;;;;;;3.80;2.70;;;22.80;99.90;;;;;;5076024;28;20233;-68
2022/08/15 01:13:46;;;;;;;7.27;2.37;;;22.80;99.90;;;;;;5075717;28;20225;-69
2022/08/15 01:16:12;;;;;;;3.57;2.37;;;23.00;99.90;;;;;;5076583;28;20194;-72
2022/08/15 01:18:38;;;;;;;5.03;2.50;;;22.90;99.90;;;;;;5076695;28;20266;-71
2022/08/15 01:21:38;;;;;;;2.40;2.20;;;22.90;99.90;;;;;;5076366;28;20217;-70
2022/08/15 01:24:24;;;;;;;2.63;2.43;;;22.90;99.90;;;;;;5076111;28;20183;-69
2022/08/15 01:26:51;;;;;;;5.60;2.00;;;22.90;99.90;;;;;;5076714;28;20266;-68
2022/08/15 01:29:18;;;;;;;2.00;1.90;;;23.00;99.90;;;;;;5076300;28;20203;-69
2022/08/15 01:31:46;;;;;;;2.97;2.30;;;22.90;99.90;;;;;;5076029;28;20179;-69
2022/08/15 01:34:12;;;;;;;2.27;2.00;;;22.80;99.90;;;;;;5082880;28;20262;-68
2022/08/15 01:36:37;;;;;;;3.00;2.60;;;22.80;99.90;;;;;;5076529;28;20282;-70
2022/08/15 01:39:23;;;;;;;7.30;2.23;;;22.80;99.90;;;;;;5076212;28;20601;-69
2022/08/15 01:41:53;;;;;;;4.33;1.60;;;22.80;99.90;;;;;;5076438;28;20266;-70
2022/08/15 01:44:31;;;;;;;2.33;2.10;;;22.80;99.90;;;;;;5076549;28;20473;-69
2022/08/15 01:47:13;;;;;;;2.40;1.83;;;22.70;99.90;;;;;;5076356;28;20178;-68
2022/08/15 01:50:00;;;;;;;1.60;1.50;;;22.60;99.90;;;;;;5075853;28;20199;-70
2022/08/15 01:52:33;;;;;;;1.83;1.73;;;22.50;99.90;;;;;;5075268;28;20171;-68
2022/08/15 01:55:03;;;;;;;2.10;2.00;;;22.60;99.90;;;;;;5075328;28;20203;-69
2022/08/15 01:57:29;;;;;;;1.50;1.40;;;22.50;99.90;;;;;;5080339;28;20179;-70
2022/08/15 01:59:58;;;;;;;1.60;1.50;;;22.30;99.90;;;;;;5076576;28;20599;-72
2022/08/15 02:02:26;;;;;;;3.73;1.70;;;22.30;99.90;;;;;;5080147;28;20181;-69
2022/08/15 02:04:53;;;;;;;2.30;2.20;;;22.40;99.90;;;;;;5079341;28;20188;-70
2022/08/15 02:07:24;;;;;;;2.50;2.27;;;22.40;99.90;;;;;;5079285;28;20663;-70
2022/08/15 02:09:50;;;;;;;3.17;2.27;;;22.40;99.90;;;;;;5078829;28;20183;-70
2022/08/15 02:12:19;;;;;;;2.57;1.93;;;22.40;99.90;;;;;;5079509;28;20232;-70
2022/08/15 02:14:45;;;;;;;4.10;2.23;;;22.10;99.90;;;;;;5079079;28;20591;-69
2022/08/15 02:17:13;;;;;;;2.70;2.37;;;21.80;99.90;;;;;;5079887;28;20263;-69
2022/08/15 02:19:41;;;;;;;1.80;1.70;;;21.70;99.90;;;;;;5079647;28;20183;-72
2022/08/15 02:22:10;;;;;;;2.53;1.80;;;21.40;99.90;;;;;;5078978;28;20512;-70
2022/08/15 02:24:37;;;;;;;1.87;1.77;;;-40.00;76.80;;;;;;5079671;28;20186;-70
2022/08/15 02:27:04;;;;;;;2.10;1.83;;;-40.00;76.60;;;;;;5077950;28;20217;-70
2022/08/15 02:29:30;;;;;;;7.80;2.60;;;-40.00;76.90;;;;;;5079162;28;20171;-69
2022/08/15 02:32:02;;;;;;;3.13;1.90;;;-40.00;77.30;;;;;;5079008;28;20211;-69
2022/08/15 02:34:27;;;;;;;2.97;1.90;;;-40.00;77.60;;;;;;5079998;28;20258;-70
2022/08/15 02:36:53;;;;;;;1.67;1.50;;;-40.00;77.80;;;;;;5079053;28;20270;-70
2022/08/15 02:39:20;;;;;;;2.23;2.03;;;-40.00;78.40;;;;;;5078911;28;20190;-69
2022/08/15 02:41:51;;;;;;;3.83;2.67;;;-40.00;77.80;;;;;;5079264;28;20251;-71
2022/08/15 02:44:20;;;;;;;2.57;2.37;;;-40.00;77.90;;;;;;5082256;28;20183;-71
2022/08/15 02:46:51;;;;;;;2.73;1.97;;;-40.00;78.90;;;;;;5079085;28;20194;-69
2022/08/15 02:49:18;;;;;;;2.87;2.67;;;-40.00;79.80;;;;;;5079165;28;20451;-69
2022/08/15 02:51:46;;;;;;;2.77;2.20;;;-40.00;80.60;;;;;;5078173;28;20582;-69
2022/08/15 02:54:15;;;;;;;4.43;2.40;;;23.00;99.90;;;;;;5084448;28;20183;-68
2022/08/15 02:56:41;;;;;;;2.20;2.10;;;23.00;99.90;;;;;;5079409;28;20214;-69
2022/08/15 02:59:08;;;;;;;3.47;1.60;;;23.10;99.90;;;;;;5077360;28;20556;-70
2022/08/15 03:01:40;;;;;;;4.03;2.67;;;23.00;99.90;;;;;;5078301;28;20183;-70
2022/08/15 03:04:09;;;;;;;2.40;2.17;;;23.00;99.90;;;;;;5077885;28;20307;-70
2022/08/15 03:06:36;;;;;;;5.67;2.67;;;23.00;99.90;;;;;;5078447;28;20231;-70
2022/08/15 03:09:08;;;;;;;3.30;2.20;;;22.90;99.90;;;;;;5078843;28;20662;-70
2022/08/15 03:11:38;;;;;;;4.87;2.17;;;22.90;99.90;;;;;;5082919;28;20172;-72
2022/08/15 03:14:07;;;;;;;2.30;2.20;;;22.90;99.90;;;;;;5078759;28;20996;-69
2022/08/15 03:16:40;;;;;;;6.27;2.90;;;22.90;99.90;;;;;;5077955;28;20214;-70
2022/08/15 03:19:08;;;;;;;6.00;2.40;;;22.70;99.90;;;;;;5078612;28;20669;-69
2022/08/15 03:21:35;;;;;;;4.10;2.40;;;22.60;99.90;;;;;;5077691;28;20228;-69
2022/08/15 03:24:02;;;;;;;4.20;2.97;;;22.70;99.90;;;;;;5078185;28;20179;-70
2022/08/15 03:26:29;;;;;;;4.00;2.63;;;22.70;99.90;;;;;;5078419;28;20223;-69
2022/08/15 03:28:55;;;;;;;5.13;3.10;;;22.80;99.90;;;;;;5078692;28;20176;-70
2022/08/15 03:31:21;;;;;;;4.20;2.73;;;22.70;99.90;;;;;;5078464;28;20270;-70
2022/08/15 03:33:47;;;;;;;2.57;2.37;;;22.70;99.90;;;;;;5078262;28;20266;-69
2022/08/15 03:36:19;;;;;;;3.23;2.90;;;22.20;99.90;;;;;;5077806;28;20674;-69
2022/08/15 03:38:46;;;;;;;2.83;2.63;;;22.00;99.90;;;;;;5078886;28;20560;-70
2022/08/15 03:41:13;;;;;;;3.27;2.37;;;21.70;99.90;;;;;;5077589;28;20482;-69
2022/08/15 03:43:40;;;;;;;3.30;2.30;;;21.50;99.90;;;;;;5077132;28;20262;-69
2022/08/15 03:46:09;;;;;;;3.07;2.77;;;21.10;99.90;;;;;;5084765;28;20232;-69
2022/08/15 03:48:40;;;;;;;3.97;2.20;;;21.10;99.90;;;;;;5082461;28;20178;-73
2022/08/15 03:51:08;;;;;;;4.03;3.13;;;19.20;99.90;;;;;;5077466;28;20301;-72
2022/08/15 03:53:43;;;;;;;2.93;2.67;;;22.00;99.90;;;;;;5077937;28;20175;-70
2022/08/15 03:56:13;;;;;;;3.17;2.90;;;21.90;99.90;;;;;;5077129;28;20205;-70
2022/08/15 03:58:39;;;;;;;6.90;3.50;;;21.90;99.90;;;;;;5076993;28;20816;-69
2022/08/15 04:01:11;;;;;;;3.30;3.07;;;21.80;99.90;;;;;;5077760;28;20265;-69
2022/08/15 04:03:37;;;;;;;3.77;2.83;;;21.80;99.90;;;;;;5076967;28;20175;-70
2022/08/15 04:06:06;;;;;;;4.30;3.73;;;21.90;99.90;;;;;;5077039;28;20301;-69
2022/08/15 04:08:33;;;;;;;2.80;2.60;;;22.00;99.90;;;;;;5078190;28;20179;-70
2022/08/15 04:11:05;;;;;;;5.77;3.57;;;22.00;99.90;;;;;;5076684;28;20183;-71
2022/08/15 04:13:32;;;;;;;5.23;2.83;;;21.70;99.90;;;;;;5077463;28;20168;-70
2022/08/15 04:16:00;;;;;;;5.83;4.27;;;21.70;99.90;;;;;;5075840;28;20207;-71
2022/08/15 04:18:28;;;;;;;3.27;2.97;;;21.60;99.90;;;;;;5076718;28;20258;-71
2022/08/15 04:20:56;;;;;;;6.47;3.77;;;21.60;99.90;;;;;;5077080;28;20578;-69
2022/08/15 04:23:23;;;;;;;4.03;3.60;;;21.70;99.90;;;;;;5075457;28;20559;-68
2022/08/15 04:25:49;;;;;;;5.97;3.57;;;21.60;99.90;;;;;;5077336;28;20598;-71
2022/08/15 04:28:17;;;;;;;3.17;2.93;;;21.60;99.90;;;;;;5077110;28;20262;-74
2022/08/15 04:30:46;;;;;;;3.77;3.40;;;21.70;99.90;;;;;;5077463;28;20644;-70
2022/08/15 04:33:22;;;;;;;2.93;2.73;;;21.70;99.90;;;;;;5075265;28;20214;-70
2022/08/15 04:35:52;;;;;;;6.10;3.00;;;21.60;99.90;;;;;;5076690;28;20264;-69
2022/08/15 04:38:18;;;;;;;3.80;3.50;;;21.70;99.90;;;;;;5077287;28;20549;-69
2022/08/15 04:40:46;;;;;;;4.33;3.93;;;21.60;99.90;;;;;;5077255;28;20629;-71
2022/08/15 04:43:12;;;;;;;4.50;3.63;;;21.30;99.90;;;;;;5076532;28;20179;-70
2022/08/15 04:45:40;;;;;;;3.70;3.50;;;21.30;99.90;;;;;;5077149;28;20179;-71
2022/08/15 04:48:07;;;;;;;4.77;3.87;;;21.10;99.90;;;;;;5075676;28;20179;-69
2022/08/15 04:50:35;;;;;;;6.80;3.37;;;21.10;99.90;;;;;;5076503;28;20194;-70
2022/08/15 04:53:02;;;;;;;4.40;3.27;;;20.40;99.90;;;;;;5075314;28;20210;-71
2022/08/15 04:55:28;;;;;;;3.47;3.23;;;20.30;99.90;;;;;;5076706;28;20234;-70
2022/08/15 04:57:56;;;;;;;4.37;4.00;;;20.20;99.90;;;;;;5090349;28;20191;-69
2022/08/15 05:00:27;;;;;;;4.63;3.43;;;20.20;99.90;;;;;;5082967;28;20190;-69
2022/08/15 05:03:06;;;;;;;3.83;3.53;;;20.20;99.90;;;;;;5076698;28;20179;-70
2022/08/15 05:05:34;;;;;;;5.50;4.43;;;20.00;99.90;;;;;;5076734;28;20273;-72
2022/08/15 05:08:01;;;;;;;4.17;3.40;;;19.50;99.90;;;;;;5080962;28;20650;-71
2022/08/15 05:10:27;;;;;;;4.80;3.63;;;19.30;99.90;;;;;;5076286;28;20228;-70
2022/08/15 05:12:52;;;;;;;3.63;3.33;;;19.20;99.90;;;;;;5076943;28;20183;-72
2022/08/15 05:15:20;;;;;;;3.73;3.37;;;19.00;99.90;;;;;;5076279;28;20222;-77
2022/08/15 05:17:47;;;;;;;5.00;3.70;;;20.80;99.90;;;;;;5076508;28;20485;-73
2022/08/15 05:20:15;;;;;;;3.70;3.40;;;20.50;99.90;;;;;;5077126;28;20183;-69
2022/08/15 05:22:59;;;;;;;6.17;4.23;;;20.50;99.90;;;;;;5076737;28;20255;-72
2022/08/15 05:25:25;;;;;;;6.03;3.37;;;20.60;99.90;;;;;;5076539;28;20179;-69
2022/08/15 05:27:51;;;;;;;4.20;2.70;;;20.60;99.90;;;;;;5082502;28;20613;-74
2022/08/15 05:30:18;;;;;;;3.67;3.40;;;20.70;99.90;;;;;;5090453;28;20179;-73
2022/08/15 05:32:44;;;;;;;6.07;4.10;;;20.70;99.90;;;;;;5092166;28;20273;-70
2022/08/15 05:35:10;;;;;;;3.63;3.33;;;20.70;99.90;;;;;;5078240;28;20286;-72
2022/08/15 05:37:36;;;;;;;3.73;3.13;;;20.80;99.90;;;;;;5086343;28;20171;-76
2022/08/15 05:40:06;;;;;;;3.67;3.20;;;20.80;99.90;;;;;;5079950;28;20290;-69
2022/08/15 05:42:47;;;;;;;5.47;4.00;;;20.80;99.90;;;;;;5095077;28;20483;-73
2022/08/15 05:45:32;;;;;;;5.30;3.97;;;20.90;99.90;;;;;;5095373;28;20186;-74
2022/08/15 05:48:14;;;;;;;3.77;3.43;;;20.90;99.90;;;;;;5092879;28;20273;-72
2022/08/15 05:50:50;;;;;;;3.77;3.47;;;20.90;99.90;;;;;;5081329;28;20614;-72
2022/08/15 05:53:20;;;;;;;3.43;3.10;;;20.90;99.90;;;;;;5080161;28;20183;-71
2022/08/15 05:55:53;;;;;;;4.07;3.53;;;20.90;99.90;;;;;;5079421;28;20704;-76
2022/08/15 05:58:36;;;;;;;4.87;3.80;;;20.90;99.90;;;;;;5091291;28;20198;-74
2022/08/15 06:01:35;;;;;;;7.80;3.43;;;20.90;99.90;;;;;;5082319;28;20622;-76
2022/08/15 06:04:10;;;;;;;8.53;4.07;;;20.90;99.90;;;;;;5092566;28;20171;-78
2022/08/15 06:06:39;;;;;;;4.27;3.97;;;21.00;99.90;;;;;;5089406;28;20600;-70
2022/08/15 06:09:38;;;;;;;5.27;3.87;;;21.10;99.90;;;;;;5089426;28;20201;-72
2022/08/15 06:12:09;;;;;;;3.83;3.50;;;21.10;99.90;;;;;;5087424;28;20178;-71
2022/08/15 06:14:40;;;;;;;5.17;3.93;;;21.10;99.90;;;;;;5083252;28;20175;-71
2022/08/15 06:17:34;;;;;;;7.63;3.73;;;21.20;99.90;;;;;;5083815;28;20468;-69
2022/08/15 06:20:03;;;;;;;4.50;4.07;;;21.40;99.90;;;;;;5085798;28;20195;-70
2022/08/15 06:22:55;;;;;;;3.97;3.67;;;21.50;99.90;;;;;;5087542;28;20597;-71
2022/08/15 06:25:36;;;;;;;4.60;3.37;;;21.60;99.90;;;;;;5080988;28;20190;-70
2022/08/15 06:28:22;;;;;;;11.50;3.97;;;21.40;99.90;;;;;;5082253;28;20219;-72
2022/08/15 06:31:10;;;;;;;4.90;4.20;;;21.40;99.90;;;;;;5084584;28;20220;-75
2022/08/15 06:33:58;;;;;;;4.53;3.67;;;21.50;99.90;;;;;;5085221;28;20529;-70
2022/08/15 06:36:43;;;;;;;6.03;3.87;;;21.50;99.90;;;;;;5078598;28;20641;-71
2022/08/15 06:39:27;;;;;;;4.43;3.67;;;21.40;99.90;;;;;;5079136;28;20167;-71
2022/08/15 06:42:07;;;;;;;5.07;3.97;;;21.40;99.90;;;;;;5078653;28;20232;-71
2022/08/15 06:44:33;;;;;;;4.67;3.20;;;21.40;99.90;;;;;;5078921;28;20224;-70
2022/08/15 06:47:03;;;;;;;4.63;4.43;;;21.50;99.90;;;;;;5078575;28;20739;-69
2022/08/15 06:49:34;;;;;;;8.27;3.73;;;21.50;99.90;;;;;;5078622;28;20182;-71
2022/08/15 06:52:01;;;;;;;4.33;3.73;;;21.50;99.90;;;;;;5078754;28;20159;-71
2022/08/15 06:54:28;;;;;;;8.87;5.20;;;21.30;99.90;;;;;;5079555;28;20171;-67
2022/08/15 06:57:20;;;;;;;5.87;3.53;;;21.00;99.90;;;;;;5077726;28;20230;-72
2022/08/15 07:00:09;;;;;;;6.60;4.17;;;21.10;99.90;;;;;;5077968;28;20201;-69
2022/08/15 07:03:02;;;;;;;6.80;3.83;;;21.20;99.90;;;;;;5081164;28;20214;-70
2022/08/15 07:05:36;;;;;;;5.33;4.67;;;21.30;99.90;;;;;;5083381;28;20190;-70
2022/08/15 07:08:13;;;;;;;3.47;3.17;;;21.40;99.90;;;;;;5097017;28;20269;-76
2022/08/15 07:10:44;;;;;;;5.33;3.63;;;21.40;99.90;;;;;;5077817;28;20209;-72
2022/08/15 07:13:23;;;;;;;6.97;3.93;;;21.40;99.90;;;;;;5088529;28;20589;-71
2022/08/15 07:16:08;;;;;;;5.13;4.63;;;21.50;99.90;;;;;;5077765;28;20225;-72
2022/08/15 07:18:44;;;;;;;5.77;3.80;;;21.40;99.90;;;;;;5079469;28;20630;-71
2022/08/15 07:21:17;;;;;;;13.97;4.07;;;21.50;99.90;;;;;;5089802;28;20193;-72
2022/08/15 07:24:04;;;;;;;4.97;3.90;;;21.60;99.90;;;;;;5089192;28;20206;-69
2022/08/15 07:26:54;;;;;;;5.70;5.13;;;21.40;99.90;;;;;;5083775;28;20181;-71
2022/08/15 07:29:46;;;;;;;4.50;4.10;;;21.60;99.90;;;;;;5086224;28;20354;-75
2022/08/15 07:32:18;;;;;;;10.53;4.87;;;21.80;99.90;;;;;;5088279;28;20275;-69
2022/08/15 07:34:54;;;;;;;6.07;4.13;;;21.80;99.90;;;;;;5084050;28;20512;-77
2022/08/15 07:37:22;;;;;;;7.97;3.83;;;21.90;99.90;;;;;;5086478;28;20235;-76
2022/08/15 07:39:57;;;;;;;6.40;3.80;;;21.80;99.90;;;;;;5086591;28;20182;-71
2022/08/15 07:42:24;;;;;;;4.83;4.13;;;21.80;99.90;;;;;;5084116;28;20261;-72
2022/08/15 07:44:59;;;;;;;6.33;4.00;;;21.50;99.90;;;;;;5085183;28;20262;-74
2022/08/15 07:47:28;;;;;;;4.33;3.90;;;21.60;99.90;;;;;;5085414;28;20170;-70
2022/08/15 07:50:06;;;;;;;9.17;4.17;;;21.60;99.90;;;;;;5087068;28;20521;-75
2022/08/15 07:52:33;;;;;;;5.07;3.90;;;21.50;99.90;;;;;;5082363;28;20586;-69
2022/08/15 07:55:18;;;;;;;4.43;3.73;;;20.60;99.90;;;;;;5089082;28;20237;-73
2022/08/15 07:58:04;;;;;;;4.90;4.43;;;23.50;99.90;;;;;;5081965;28;20190;-70
2022/08/15 08:00:34;;;;;;;4.80;3.43;;;23.50;99.90;;;;;;5080944;28;20179;-73
2022/08/15 08:03:20;;;;;;;5.10;3.87;;;23.50;99.90;;;;;;5081850;28;20186;-69
2022/08/15 08:06:12;;;;;;;5.20;4.33;;;23.50;99.90;;;;;;5087831;28;20269;-71
2022/08/15 08:08:56;;;;;;;7.30;4.13;;;23.60;99.90;;;;;;5088309;28;20192;-73
2022/08/15 08:11:50;;;;;;;4.73;4.23;;;23.70;99.90;;;;;;5084046;28;20263;-71
2022/08/15 08:14:35;;;;;;;4.77;4.47;;;23.60;99.90;;;;;;5082636;28;20579;-75
2022/08/15 08:17:16;;;;;;;4.80;3.63;;;23.70;99.90;;;;;;5082684;28;20221;-75
2022/08/15 08:20:11;;;;;;;3.77;3.47;;;23.60;99.90;;;;;;5089744;28;20526;-72
2022/08/15 08:23:06;;;;;;;3.43;3.23;;;23.60;99.90;;;;;;5092136;28;20183;-79
2022/08/15 08:25:40;;;;;;;6.33;3.60;;;23.50;99.90;;;;;;5087773;28;20190;-75
2022/08/15 08:28:32;;;;;;;5.67;4.03;;;23.50;99.90;;;;;;5082690;28;20212;-73
2022/08/15 08:31:20;;;;;;;4.57;3.63;;;23.30;99.90;;;;;;5073452;28;21082;-74
2022/08/15 08:33:54;;;;;;;5.07;3.87;;;23.20;99.90;;;;;;5078599;28;20175;-70
2022/08/15 08:36:45;;;;;;;4.10;3.80;;;23.00;99.90;;;;;;5076560;28;20221;-73
2022/08/15 08:39:19;;;;;;;4.10;3.70;;;22.90;99.90;;;;;;5076710;28;20594;-69
2022/08/15 08:41:56;;;;;;;4.90;4.60;;;23.00;99.90;;;;;;5076408;28;20205;-69
2022/08/15 08:44:23;;;;;;;6.63;3.73;;;23.10;99.90;;;;;;5074781;28;20175;-71
2022/08/15 08:47:17;;;;;;;5.17;4.30;;;23.20;99.90;;;;;;5081495;28;20286;-69
2022/08/15 08:50:08;;;;;;;7.53;4.37;;;23.30;99.90;;;;;;5076793;28;20644;-72
2022/08/15 08:52:40;;;;;;;3.93;3.63;;;23.30;99.90;;;;;;5082970;28;20200;-72
2022/08/15 08:55:20;;;;;;;7.10;4.33;;;23.20;99.90;;;;;;5075353;28;20360;-69
2022/08/15 08:57:58;;;;;;;3.77;3.47;;;23.20;99.90;;;;;;5082755;28;20201;-71
2022/08/15 09:00:36;;;;;;;4.40;4.07;;;23.20;99.90;;;;;;5085886;28;20590;-68
2022/08/15 09:03:21;;;;;;;6.00;3.93;;;23.20;99.90;;;;;;5083353;28;20581;-71
2022/08/15 09:05:51;;;;;;;5.97;4.50;;;23.10;99.90;;;;;;5088577;28;20182;-71
2022/08/15 09:08:41;;;;;;;4.63;4.10;;;23.00;99.90;;;;;;5089025;28;20190;-72
2022/08/15 09:11:20;;;;;;;8.70;4.63;;;22.70;99.90;;;;;;5091358;28;20218;-73
2022/08/15 09:13:49;;;;;;;4.47;4.07;;;22.90;99.90;;;;;;5099924;28;20189;-71
2022/08/15 09:16:21;;;;;;;6.27;4.10;;;23.10;99.90;;;;;;5097661;28;20229;-72
2022/08/15 09:18:50;;;;;;;12.67;5.20;;;23.20;99.90;;;;;;5102392;28;20193;-70
2022/08/15 09:21:17;;;;;;;5.37;4.87;;;23.30;99.90;;;;;;5090497;28;20266;-69
2022/08/15 09:23:46;;;;;;;4.60;4.30;;;23.30;99.90;;;;;;5086621;28;20428;-70
2022/08/15 09:26:42;;;;;;;5.30;4.80;;;23.10;99.90;;;;;;5082941;28;20231;-70
2022/08/15 09:29:22;;;;;;;5.43;4.07;;;24.00;99.90;;;;;;5087422;28;20484;-71
2022/08/15 09:32:23;;;;;;;4.13;3.30;;;24.20;99.90;;;;;;5084794;28;20613;-71
2022/08/15 09:35:11;;;;;;;5.53;4.03;;;24.30;99.90;;;;;;5085050;28;20607;-71
2022/08/15 09:37:59;;;;;;;5.77;4.67;;;24.30;99.90;;;;;;5081853;28;20207;-72
2022/08/15 09:40:32;;;;;;;6.30;3.90;;;-40.00;88.20;;;;;;5086932;28;20180;-71
2022/08/15 09:43:01;;;;;;;5.90;4.57;;;-40.00;89.60;;;;;;5081533;28;20175;-87
2022/08/15 09:45:48;;;;;;;4.10;3.80;;;-40.00;87.00;;;;;;5087479;28;20532;-82
2022/08/15 09:48:30;;;;;;;3.70;3.50;;;-40.00;85.80;;;;;;5084089;28;20315;-68
2022/08/15 09:51:13;;;;;;;4.53;3.97;;;-0.90;99.80;;;;;;5079254;28;20491;-71
2022/08/15 09:53:57;;;;;;;6.57;4.57;;;25.90;99.90;;;;;;5097465;28;20178;-72
2022/08/15 09:56:25;;;;;;;6.63;4.03;;;26.10;99.90;;;;;;5081744;28;20324;-74
2022/08/15 09:59:18;;;;;;;3.90;3.57;;;26.10;99.90;;;;;;5085023;28;20187;-72
2022/08/15 10:01:56;;;;;;;5.47;4.97;;;26.30;99.90;;;;;;5078560;28;20221;-70
2022/08/15 10:04:40;;;;;;;9.10;4.03;;;26.10;99.90;;;;;;5086838;28;20189;-85
2022/08/15 10:07:06;;;;;;;8.83;4.13;;;26.00;99.90;;;;;;5081689;28;20777;-69
2022/08/15 10:09:35;;;;;;;8.27;4.20;;;26.20;99.90;;;;;;5080771;28;20210;-71
2022/08/15 10:12:07;;;;;;;4.40;3.90;;;26.10;99.90;;;;;;5080884;28;20175;-71
2022/08/15 10:14:54;;;;;;;3.77;3.07;;;26.10;99.90;;;;;;5082817;28;20179;-74
2022/08/15 10:17:40;;;;;;;4.57;4.20;;;25.90;99.90;;;;;;5077097;28;20219;-78
2022/08/15 10:20:15;;;;;;;4.70;3.87;;;25.80;99.90;;;;;;5082879;28;20179;-72
2022/08/15 10:23:13;;;;;;;4.33;4.00;;;26.50;99.90;;;;;;5082855;28;20235;-70
2022/08/15 10:25:47;;;;;;;7.73;4.20;;;26.50;99.90;;;;;;5077952;28;20198;-72
2022/08/15 10:28:13;;;;;;;4.07;3.60;;;26.40;99.90;;;;;;5085934;28;20183;-70
2022/08/15 10:30:45;;;;;;;5.13;3.93;;;26.40;99.90;;;;;;5087242;28;20598;-73
2022/08/15 10:33:36;;;;;;;4.97;4.57;;;26.40;99.90;;;;;;5078362;28;20205;-74
2022/08/15 10:36:14;;;;;;;3.50;3.20;;;26.50;99.90;;;;;;5075339;28;20241;-69
2022/08/15 10:39:20;;;;;;;4.33;4.03;;;26.60;99.90;;;;;;5079523;28;20221;-71
2022/08/15 10:42:11;;;;;;;5.93;3.77;;;26.60;99.90;;;;;;5082571;28;20537;-68
2022/08/15 10:45:11;;;;;;;3.40;3.07;;;26.00;99.90;;;;;;5083311;28;20259;-70
2022/08/15 10:47:56;;;;;;;7.07;3.37;;;27.00;99.50;;;;;;5102600;28;20174;-71
2022/08/15 10:50:45;;;;;;;3.40;3.20;;;26.70;99.90;;;;;;5090541;28;20205;-67
2022/08/15 10:53:32;;;;;;;3.57;3.27;;;26.80;99.90;;;;;;5095366;28;20205;-68
2022/08/15 10:56:32;;;;;;;3.47;3.07;;;26.70;99.90;;;;;;5076972;28;20207;-74
2022/08/15 10:59:10;;;;;;;5.37;3.87;;;26.90;99.90;;;;;;5070525;28;20203;-70
2022/08/15 11:01:37;;;;;;;4.13;3.73;;;27.00;99.90;;;;;;5078820;28;20210;-69
2022/08/15 11:04:13;;;;;;;4.13;3.80;;;27.20;99.90;;;;;;5078018;28;20614;-71
2022/08/15 11:06:43;;;;;;;6.00;4.20;;;27.30;99.70;;;;;;5082297;28;20212;-68
2022/08/15 11:09:13;;;;;;;4.33;4.03;;;27.10;99.50;;;;;;5097828;28;20541;-70
2022/08/15 11:11:43;;;;;;;4.90;4.50;;;27.00;99.90;;;;;;5103863;28;20269;-74
2022/08/15 11:14:31;;;;;;;4.33;4.00;;;25.30;99.50;;;;;;5092775;28;20187;-71
2022/08/15 11:17:00;;;;;;;5.13;4.20;;;26.30;99.90;;;;;;5078218;28;20254;-78
2022/08/15 11:19:33;;;;;;;4.23;4.00;;;26.00;99.90;;;;;;5078185;28;20254;-72
2022/08/15 11:22:02;;;;;;;4.27;3.83;;;25.90;99.90;;;;;;5078512;28;20201;-72
2022/08/15 11:24:31;;;;;;;8.47;4.80;;;26.10;99.90;;;;;;5077944;28;20193;-74
2022/08/15 11:27:13;;;;;;;5.23;4.80;;;25.70;99.90;;;;;;5076618;28;20643;-79
2022/08/15 11:29:40;;;;;;;4.70;4.33;;;24.40;99.90;;;;;;5076641;28;20183;-74
2022/08/15 11:32:06;;;;;;;5.20;4.80;;;25.50;99.90;;;;;;5079694;28;20183;-71
2022/08/15 11:34:38;;;;;;;7.33;4.60;;;25.50;99.90;;;;;;5077380;28;20579;-73
2022/08/15 11:37:12;;;;;;;5.57;4.47;;;25.60;99.90;;;;;;5077685;28;20210;-70
2022/08/15 11:39:42;;;;;;;6.07;4.63;;;25.50;99.90;;;;;;5078296;28;20183;-75
2022/08/15 11:42:13;;;;;;;6.50;4.87;;;25.50;99.90;;;;;;5081234;28;20578;-68
2022/08/15 11:45:10;;;;;;;7.87;5.37;;;25.60;99.90;;;;;;5103154;28;20592;-72
2022/08/15 11:47:43;;;;;;;5.13;4.63;;;26.70;99.90;;;;;;5091492;28;20179;-68
2022/08/15 11:50:26;;;;;;;13.17;12.10;;;26.80;99.90;;;;;;5077127;28;20218;-75
2022/08/15 11:52:57;;;;;;;5.43;4.90;;;26.80;99.90;;;;;;5077099;28;20205;-76
2022/08/15 11:55:27;;;;;;;5.80;5.30;;;26.70;99.90;;;;;;5078250;28;20203;-70
2022/08/15 11:58:12;;;;;;;4.60;4.17;;;26.90;99.90;;;;;;5076937;28;20321;-77
2022/08/15 12:00:42;;;;;;;4.73;3.93;;;27.00;99.90;;;;;;5080996;28;20258;-70
2022/08/15 12:03:27;;;;;;;5.40;5.00;;;27.20;99.90;;;;;;5077426;28;20183;-69
2022/08/15 12:06:16;;;;;;;5.43;4.93;;;27.10;99.50;;;;;;5074879;28;20308;-80
2022/08/15 12:08:46;;;;;;;5.70;5.13;;;27.10;99.90;;;;;;5076513;28;20186;-71
2022/08/15 12:11:37;;;;;;;3.93;3.63;;;24.80;98.60;;;;;;5077912;28;20187;-72
2022/08/15 12:14:14;;;;;;;4.47;4.07;;;27.80;99.90;;;;;;5075730;28;20188;-74
2022/08/15 12:16:51;;;;;;;7.00;5.03;;;27.90;99.70;;;;;;5082615;28;20202;-70
2022/08/15 12:19:29;;;;;;;3.83;3.40;;;28.20;98.40;;;;;;5077591;28;20634;-72
2022/08/15 12:22:00;;;;;;;5.27;4.63;;;28.20;98.80;;;;;;5076867;28;20225;-69
2022/08/15 12:24:31;;;;;;;6.03;5.53;;;28.10;99.30;;;;;;5076430;28;20183;-69
2022/08/15 12:27:01;;;;;;;5.10;4.40;;;27.80;98.50;;;;;;5077492;28;20183;-68
2022/08/15 12:29:28;;;;;;;4.33;4.00;;;27.40;98.30;;;;;;5076425;28;20214;-73
2022/08/15 12:31:56;;;;;;;5.33;4.83;;;28.00;97.50;;;;;;5075376;28;20223;-77
2022/08/15 12:34:37;;;;;;;5.47;4.03;;;27.60;97.40;;;;;;5075703;28;20187;-69
2022/08/15 12:37:09;;;;;;;6.10;4.53;;;26.60;97.00;;;;;;5076767;28;20610;-77
2022/08/15 12:39:49;;;;;;;7.23;4.03;;;26.40;96.90;;;;;;5078319;28;20526;-69
2022/08/15 12:42:26;;;;;;;4.67;4.03;;;26.40;97.10;;;;;;5077487;28;20190;-69
2022/08/15 12:44:55;;;;;;;4.17;3.87;;;26.30;96.30;;;;;;5072952;28;20178;-68
2022/08/15 12:47:22;;;;;;;4.37;3.73;;;28.30;96.20;;;;;;5076330;28;20240;-68
2022/08/15 12:49:49;;;;;;;4.80;4.20;;;7.60;90.20;;;;;;5077014;28;20235;-67
2022/08/15 12:52:19;;;;;;;9.90;3.90;;;29.30;96.50;;;;;;5076561;28;20187;-69
2022/08/15 12:54:46;;;;;;;4.10;3.75;;;30.30;95.60;;;;;;5076421;28;20179;-69
2022/08/15 12:57:12;;;;;;;4.50;3.58;;;31.70;92.70;;;;;;5076824;28;20262;-69
2022/08/15 12:59:39;;;;;;;4.90;4.47;;;30.90;87.20;;;;;;5076607;28;20194;-68
2022/08/15 13:02:07;;;;;;;5.88;4.07;;;31.80;83.20;;;;;;5076898;28;20187;-69
2022/08/15 13:04:32;;;;;;;5.22;3.63;;;31.40;89.20;;;;;;5076609;28;20174;-72
2022/08/15 13:07:00;;;;;;;4.28;3.60;;;31.30;86.30;;;;;;5076981;28;20183;-68
2022/08/15 13:09:30;;;;;;;4.35;4.07;;;31.20;90.70;;;;;;5079318;28;20182;-69
2022/08/15 13:11:57;;;;;;;4.93;4.13;;;31.10;89.10;;;;;;5095936;28;20723;-69
2022/08/15 13:14:23;;;;;;;6.15;3.65;;;31.10;90.40;;;;;;5084058;28;20197;-73
2022/08/15 13:16:49;;;;;;;3.45;3.28;;;31.60;90.30;;;;;;5088805;28;20275;-71
2022/08/15 13:19:24;;;;;;;3.60;3.22;;;32.40;83.20;;;;;;5079501;28;20179;-78
2022/08/15 13:24:39;;;;;;;5.07;4.47;;;33.60;79.60;;;;;;5081138;28;20529;-73
2022/08/15 13:27:07;;;;;;;4.93;3.70;;;34.50;77.50;;;;;;5084162;28;20266;-70